createdAt,value
2023-03-07T00:01:24.267Z,54.13
2023-03-07T00:03:50.692Z,60.08
2023-03-07T00:06:17.098Z,54.38
2023-03-07T00:08:43.498Z,63.55
2023-03-07T00:11:09.917Z,63.90
2023-03-07T00:13:37.946Z,58.15
2023-03-07T00:16:11.273Z,54.40
2023-03-07T00:18:37.863Z,57.85
2023-03-07T00:21:07.137Z,55.45
2023-03-07T00:23:34.234Z,59.70
2023-03-07T00:26:06.212Z,57.63
2023-03-07T00:28:32.879Z,55.10
2023-03-07T00:31:03.968Z,51.67
2023-03-07T00:33:31.024Z,58.17
2023-03-07T00:36:01.948Z,53.35
2023-03-07T00:38:30.383Z,55.50
2023-03-07T00:41:26.527Z,54.70
2023-03-07T00:43:54.213Z,46.55
2023-03-07T00:46:22.358Z,47.17
2023-03-07T00:48:49.223Z,47.15
2023-03-07T00:51:16.981Z,49.20
2023-03-07T00:53:43.438Z,48.03
2023-03-07T00:56:23.745Z,51.03
2023-03-07T00:58:50.860Z,45.65
2023-03-07T01:01:20.134Z,46.47
2023-03-07T01:03:49.545Z,47.45
2023-03-07T01:06:17.733Z,45.00
2023-03-07T01:08:44.401Z,38.45
2023-03-07T01:11:11.300Z,37.70
2023-03-07T01:13:38.203Z,33.30
2023-03-07T01:16:19.945Z,36.22
2023-03-07T01:18:50.318Z,32.78
2023-03-07T01:21:21.378Z,32.60
2023-03-07T01:23:47.894Z,30.08
2023-03-07T01:26:19.859Z,34.90
2023-03-07T01:28:46.668Z,33.47
2023-03-07T01:31:13.563Z,34.00
2023-03-07T01:33:40.496Z,31.15
2023-03-07T01:36:16.036Z,31.95
2023-03-07T01:38:42.528Z,30.60
2023-03-07T01:41:09.460Z,30.33
2023-03-07T01:43:36.224Z,29.48
2023-03-07T01:46:17.962Z,32.38
2023-03-07T01:48:50.880Z,30.65
2023-03-07T01:51:17.701Z,29.33
2023-03-07T01:53:44.786Z,34.35
2023-03-07T01:56:11.575Z,31.90
2023-03-07T01:58:38.844Z,31.83
2023-03-07T02:01:08.292Z,32.67
2023-03-07T02:03:41.746Z,29.73
2023-03-07T02:06:10.334Z,32.65
2023-03-07T02:08:37.499Z,33.35
2023-03-07T02:11:04.723Z,34.45
2023-03-07T02:13:31.133Z,32.47
2023-03-07T02:16:00.162Z,34.05
2023-03-07T02:18:29.561Z,33.33
2023-03-07T02:21:04.997Z,32.28
2023-03-07T02:23:56.246Z,37.22
2023-03-07T02:26:26.671Z,35.17
2023-03-07T02:28:54.637Z,34.33
2023-03-07T02:31:21.220Z,34.78
2023-03-07T02:33:47.617Z,36.72
2023-03-07T02:36:23.547Z,33.28
2023-03-07T02:38:51.685Z,36.50
2023-03-07T02:41:21.306Z,36.40
2023-03-07T02:43:47.799Z,32.72
2023-03-07T02:46:14.224Z,34.63
2023-03-07T02:48:40.654Z,34.75
2023-03-07T02:51:07.269Z,32.70
2023-03-07T02:53:33.703Z,35.45
2023-03-07T02:56:00.110Z,35.10
2023-03-07T02:58:26.492Z,36.05
2023-03-07T03:00:52.865Z,36.92
2023-03-07T03:03:19.559Z,34.25
2023-03-07T03:05:45.953Z,31.27
2023-03-07T03:08:12.713Z,39.97
2023-03-07T03:10:39.398Z,39.03
2023-03-07T03:13:05.814Z,34.83
2023-03-07T03:15:32.197Z,36.90
2023-03-07T03:17:58.680Z,39.50
2023-03-07T03:20:25.786Z,37.55
2023-03-07T03:22:52.934Z,40.90
2023-03-07T03:25:22.430Z,41.33
2023-03-07T03:27:48.962Z,32.05
2023-03-07T03:30:15.837Z,33.70
2023-03-07T03:32:43.621Z,26.77
2023-03-07T03:35:10.500Z,19.75
2023-03-07T03:37:36.886Z,19.40
2023-03-07T03:40:06.650Z,17.95
2023-03-07T03:42:33.071Z,17.55
2023-03-07T03:44:59.484Z,14.85
2023-03-07T03:47:25.862Z,15.23
2023-03-07T03:49:52.248Z,14.50
2023-03-07T03:52:18.696Z,15.52
2023-03-07T03:54:45.160Z,13.55
2023-03-07T03:57:15.749Z,13.07
2023-03-07T03:59:42.140Z,11.20
2023-03-07T04:02:08.638Z,11.85
2023-03-07T04:04:35.926Z,13.27
2023-03-07T04:07:02.308Z,10.65
2023-03-07T04:09:28.707Z,11.75
2023-03-07T04:11:55.075Z,10.45
2023-03-07T04:14:21.505Z,11.75
2023-03-07T04:16:47.956Z,9.98
2023-03-07T04:19:14.398Z,11.15
2023-03-07T04:21:41.082Z,8.57
2023-03-07T04:24:08.422Z,12.55
2023-03-07T04:26:35.768Z,12.30
2023-03-07T04:29:02.742Z,15.13
2023-03-07T04:31:29.270Z,17.38
2023-03-07T04:33:56.477Z,16.20
2023-03-07T04:36:23.783Z,15.25
2023-03-07T04:38:50.269Z,16.05
2023-03-07T04:41:19.821Z,19.95
2023-03-07T04:43:46.747Z,18.77
2023-03-07T04:46:14.511Z,17.20
2023-03-07T04:48:41.142Z,15.68
2023-03-07T04:51:07.563Z,14.63
2023-03-07T04:53:33.959Z,18.25
2023-03-07T04:56:02.569Z,15.27
2023-03-07T04:58:29.639Z,15.95
2023-03-07T05:00:56.938Z,16.17
2023-03-07T05:03:24.630Z,14.85
2023-03-07T05:05:51.223Z,16.35
2023-03-07T05:08:18.083Z,15.77
2023-03-07T05:10:45.070Z,18.05
2023-03-07T05:13:11.747Z,20.52
2023-03-07T05:15:38.211Z,18.63
2023-03-07T05:18:04.678Z,18.10
2023-03-07T05:20:31.152Z,20.15
2023-03-07T05:22:57.612Z,19.50
2023-03-07T05:25:24.036Z,18.23
2023-03-07T05:27:50.520Z,21.25
2023-03-07T05:30:17.331Z,20.15
2023-03-07T05:32:43.793Z,22.83
2023-03-07T05:35:11.272Z,21.88
2023-03-07T05:37:37.810Z,19.83
2023-03-07T05:40:09.807Z,18.92
2023-03-07T05:42:36.744Z,19.15
2023-03-07T05:45:04.469Z,19.02
2023-03-07T05:47:30.849Z,21.20
2023-03-07T05:49:57.250Z,20.20
2023-03-07T05:52:23.696Z,22.40
2023-03-07T05:54:51.413Z,23.70
2023-03-07T05:57:17.869Z,25.08
2023-03-07T05:59:44.289Z,27.08
2023-03-07T06:02:10.695Z,27.27
2023-03-07T06:04:37.094Z,28.30
2023-03-07T06:07:03.473Z,30.90
2023-03-07T06:09:31.036Z,30.30
2023-03-07T06:11:57.406Z,31.17
2023-03-07T06:14:24.148Z,31.10
2023-03-07T06:16:50.558Z,31.40
2023-03-07T06:19:16.965Z,29.02
2023-03-07T06:21:44.244Z,30.02
2023-03-07T06:24:10.612Z,26.25
2023-03-07T06:26:37.005Z,26.98
2023-03-07T06:29:03.469Z,31.55
2023-03-07T06:31:29.968Z,27.42
2023-03-07T06:33:57.635Z,30.73
2023-03-07T06:36:24.180Z,29.15
2023-03-07T06:38:50.568Z,30.80
2023-03-07T06:41:17.254Z,27.48
2023-03-07T06:43:43.623Z,26.30
2023-03-07T06:46:10.107Z,24.55
2023-03-07T06:48:37.016Z,25.15
2023-03-07T06:51:07.780Z,25.38
2023-03-07T06:53:34.266Z,25.83
2023-03-07T06:56:00.649Z,31.73
2023-03-07T06:58:27.980Z,29.85
2023-03-07T07:00:54.369Z,29.05
2023-03-07T07:03:21.345Z,27.75
2023-03-07T07:05:47.895Z,27.10
2023-03-07T07:08:14.343Z,23.88
2023-03-07T07:10:40.766Z,23.98
2023-03-07T07:13:07.254Z,26.25
2023-03-07T07:15:33.835Z,25.25
2023-03-07T07:18:00.228Z,25.83
2023-03-07T07:20:26.615Z,24.08
2023-03-07T07:22:53.035Z,27.23
2023-03-07T07:25:19.434Z,31.15
2023-03-07T07:27:45.850Z,25.88
2023-03-07T07:30:13.750Z,28.05
2023-03-07T07:32:40.656Z,26.13
2023-03-07T07:35:07.484Z,26.85
2023-03-07T07:37:33.876Z,24.92
2023-03-07T07:40:00.264Z,26.25
2023-03-07T07:42:26.690Z,24.17
2023-03-07T07:44:53.079Z,21.23
2023-03-07T07:47:19.510Z,23.38
2023-03-07T07:49:45.890Z,23.65
2023-03-07T07:52:12.317Z,22.73
2023-03-07T07:54:38.697Z,24.83
2023-03-07T07:57:05.178Z,24.88
2023-03-07T07:59:34.050Z,26.70
2023-03-07T08:02:01.541Z,21.45
2023-03-07T08:04:28.084Z,23.63
2023-03-07T08:06:54.616Z,25.38
2023-03-07T08:09:21.046Z,25.52
2023-03-07T08:11:48.384Z,23.10
2023-03-07T08:14:14.763Z,20.67
2023-03-07T08:16:41.161Z,21.35
2023-03-07T08:19:07.543Z,25.80
2023-03-07T08:21:33.929Z,22.88
2023-03-07T08:24:00.307Z,23.67
2023-03-07T08:26:26.730Z,22.95
2023-03-07T08:28:53.178Z,23.85
2023-03-07T08:31:25.657Z,24.45
2023-03-07T08:33:52.622Z,21.05
2023-03-07T08:36:19.132Z,23.83
2023-03-07T08:38:50.729Z,21.27
2023-03-07T08:41:18.066Z,16.02
2023-03-07T08:43:44.575Z,17.80
2023-03-07T08:46:11.032Z,14.82
2023-03-07T08:48:37.471Z,14.13
2023-03-07T08:51:07.994Z,16.80
2023-03-07T08:53:34.485Z,12.70
2023-03-07T08:56:01.066Z,14.90
2023-03-07T08:58:27.464Z,13.30
2023-03-07T09:00:53.831Z,11.50
2023-03-07T09:03:20.232Z,12.02
2023-03-07T09:05:46.614Z,9.45
2023-03-07T09:08:13.506Z,9.55
2023-03-07T09:10:39.956Z,9.73
2023-03-07T09:13:06.620Z,9.90
2023-03-07T09:15:32.987Z,8.63
2023-03-07T09:17:59.426Z,8.70
2023-03-07T09:20:25.832Z,7.22
2023-03-07T09:22:54.090Z,7.85
2023-03-07T09:25:20.541Z,8.70
2023-03-07T09:27:47.144Z,6.38
2023-03-07T09:30:14.676Z,7.20
2023-03-07T09:32:41.337Z,7.68
2023-03-07T09:35:08.227Z,8.18
2023-03-07T09:37:34.818Z,8.52
2023-03-07T09:40:01.419Z,8.95
2023-03-07T09:42:42.034Z,10.13
2023-03-07T09:45:21.576Z,9.25
2023-03-07T09:47:58.758Z,10.68
2023-03-07T09:50:34.056Z,10.95
2023-03-07T09:53:03.799Z,10.63
2023-03-07T09:55:31.840Z,8.60
2023-03-07T09:58:07.839Z,8.60
2023-03-07T10:00:37.961Z,8.50
2023-03-07T10:03:13.417Z,8.05
2023-03-07T10:05:45.494Z,8.02
2023-03-07T10:08:15.798Z,8.27
2023-03-07T10:11:06.609Z,8.65
2023-03-07T10:13:36.752Z,8.00
2023-03-07T10:16:27.585Z,7.88
2023-03-07T10:18:57.085Z,9.45
2023-03-07T10:21:29.306Z,7.18
2023-03-07T10:24:25.069Z,7.97
2023-03-07T10:27:02.021Z,7.68
2023-03-07T10:29:34.766Z,7.88
2023-03-07T10:32:12.889Z,8.30
2023-03-07T10:34:39.819Z,7.47
2023-03-07T10:37:09.608Z,8.80
2023-03-07T10:39:52.234Z,8.68
2023-03-07T10:42:21.512Z,9.18
2023-03-07T10:44:49.870Z,9.43
2023-03-07T10:47:25.071Z,8.85
2023-03-07T10:49:55.128Z,8.00
2023-03-07T10:52:29.610Z,9.95
2023-03-07T10:55:32.053Z,8.23
2023-03-07T10:58:24.073Z,7.65
2023-03-07T11:00:59.825Z,7.70
2023-03-07T11:03:46.020Z,7.55
2023-03-07T11:06:26.175Z,8.30
2023-03-07T11:08:52.661Z,7.47
2023-03-07T11:11:24.557Z,7.03
2023-03-07T11:14:14.516Z,7.10
2023-03-07T11:17:17.278Z,5.75
2023-03-07T11:19:45.209Z,5.93
2023-03-07T11:22:36.508Z,6.63
2023-03-07T11:25:25.699Z,10.55
2023-03-07T11:27:57.054Z,7.78
2023-03-07T11:30:49.501Z,8.17
2023-03-07T11:33:20.125Z,8.95
2023-03-07T11:36:05.461Z,12.77
2023-03-07T11:38:39.781Z,11.57
2023-03-07T11:41:18.461Z,11.63
2023-03-07T11:43:57.672Z,12.18
2023-03-07T11:46:27.068Z,9.75
2023-03-07T11:49:21.894Z,10.77
2023-03-07T11:52:25.965Z,12.10
2023-03-07T11:55:24.123Z,11.23
2023-03-07T11:58:20.956Z,9.88
2023-03-07T12:00:56.435Z,11.35
2023-03-07T12:04:03.350Z,13.48
2023-03-07T12:06:44.646Z,13.95
2023-03-07T12:09:48.776Z,10.52
2023-03-07T12:12:22.109Z,10.13
2023-03-07T12:15:01.168Z,12.65
2023-03-07T12:17:48.936Z,11.38
2023-03-07T12:20:26.051Z,11.35
2023-03-07T12:23:09.937Z,10.60
2023-03-07T12:25:51.670Z,10.18
2023-03-07T12:28:29.019Z,11.48
2023-03-07T12:30:59.020Z,12.68
2023-03-07T12:33:46.950Z,12.75
2023-03-07T12:36:32.135Z,13.65
2023-03-07T12:39:07.829Z,14.65
2023-03-07T12:41:40.608Z,16.85
2023-03-07T12:44:12.751Z,19.25
2023-03-07T12:46:44.685Z,17.00
2023-03-07T12:49:16.799Z,19.20
2023-03-07T12:51:47.995Z,18.60
2023-03-07T12:54:26.213Z,13.82
2023-03-07T12:57:02.596Z,17.73
2023-03-07T12:59:29.854Z,16.38
2023-03-07T13:02:00.174Z,15.02
2023-03-07T13:04:36.271Z,15.02
2023-03-07T13:07:26.153Z,16.27
2023-03-07T13:09:58.416Z,14.88
2023-03-07T13:15:04.809Z,12.85
2023-03-07T13:17:31.281Z,13.55
2023-03-07T13:20:19.652Z,13.75
2023-03-07T13:22:45.927Z,15.80
2023-03-07T13:25:27.933Z,15.95
2023-03-07T13:27:59.177Z,17.30
2023-03-07T13:30:32.722Z,15.68
2023-03-07T13:33:03.363Z,14.43
2023-03-07T13:35:35.805Z,15.48
2023-03-07T13:38:14.953Z,18.88
2023-03-07T13:40:42.234Z,15.15
2023-03-07T13:43:25.604Z,16.50
2023-03-07T13:45:59.936Z,16.33
2023-03-07T13:48:32.228Z,17.50
2023-03-07T13:53:28.051Z,18.23
2023-03-07T13:56:02.243Z,17.00
2023-03-07T13:58:33.735Z,17.50
2023-03-07T14:01:04.110Z,17.20
2023-03-07T14:03:37.783Z,16.80
2023-03-07T14:06:10.707Z,15.80
2023-03-07T14:08:37.222Z,16.52
2023-03-07T14:11:04.760Z,16.02
2023-03-07T14:13:52.973Z,16.30
2023-03-07T14:16:51.334Z,18.60
2023-03-07T14:19:29.761Z,16.98
2023-03-07T14:22:13.162Z,17.10
2023-03-07T14:24:49.436Z,17.77
2023-03-07T14:27:16.672Z,16.23
2023-03-07T14:29:51.874Z,16.08
2023-03-07T14:32:30.644Z,16.33
2023-03-07T14:34:58.077Z,18.05
2023-03-07T14:37:29.633Z,17.15
2023-03-07T14:39:59.010Z,17.95
2023-03-07T14:42:33.818Z,17.95
2023-03-07T14:45:11.825Z,19.52
2023-03-07T14:47:44.440Z,17.88
2023-03-07T14:50:20.860Z,16.98
2023-03-07T14:52:48.050Z,17.95
2023-03-07T14:55:19.072Z,19.25
2023-03-07T14:57:49.421Z,17.02
2023-03-07T15:00:28.814Z,19.92
2023-03-07T15:02:58.252Z,20.60
2023-03-07T15:05:36.070Z,20.10
2023-03-07T15:08:02.508Z,21.98
2023-03-07T15:10:41.410Z,23.58
2023-03-07T15:13:14.874Z,25.00
2023-03-07T15:15:45.597Z,26.23
2023-03-07T15:18:20.348Z,25.50
2023-03-07T15:20:47.620Z,22.45
2023-03-07T15:23:22.443Z,29.30
2023-03-07T15:25:49.446Z,26.00
2023-03-07T15:28:18.715Z,30.40
2023-03-07T15:30:52.179Z,26.88
2023-03-07T15:33:19.447Z,30.92
2023-03-07T15:35:47.841Z,28.35
2023-03-07T15:38:15.606Z,28.38
2023-03-07T15:40:42.080Z,33.35
2023-03-07T15:43:25.552Z,28.25
2023-03-07T15:46:27.442Z,27.77
2023-03-07T15:48:54.110Z,30.67
2023-03-07T15:51:25.223Z,25.83
2023-03-07T15:54:04.369Z,29.00
2023-03-07T15:56:41.267Z,34.95
2023-03-07T15:59:22.817Z,33.97
2023-03-07T16:01:49.335Z,23.02
2023-03-07T16:04:36.066Z,29.35
2023-03-07T16:07:03.195Z,28.20
2023-03-07T16:09:29.611Z,31.02
2023-03-07T16:11:56.079Z,29.15
2023-03-07T16:14:32.720Z,31.67
2023-03-07T16:17:01.792Z,30.73
2023-03-07T16:19:28.269Z,33.85
2023-03-07T16:21:54.769Z,31.58
2023-03-07T16:24:21.157Z,31.20
2023-03-07T16:26:47.978Z,32.05
2023-03-07T16:29:16.303Z,34.95
2023-03-07T16:31:43.242Z,35.78
2023-03-07T16:34:18.069Z,34.22
2023-03-07T16:36:44.571Z,36.53
2023-03-07T16:39:12.013Z,39.45
2023-03-07T16:41:39.526Z,29.35
2023-03-07T16:44:05.889Z,17.33
2023-03-07T16:46:34.572Z,18.20
2023-03-07T16:49:00.948Z,14.43
2023-03-07T16:51:28.176Z,7.68
2023-03-07T16:53:56.627Z,6.20
2023-03-07T16:56:29.768Z,9.32
2023-03-07T16:58:56.999Z,6.28
2023-03-07T17:01:23.438Z,7.28
2023-03-07T17:03:49.881Z,4.18
2023-03-07T17:06:17.245Z,3.95
2023-03-07T17:08:44.636Z,3.67
2023-03-07T17:11:17.188Z,2.55
2023-03-07T17:13:43.711Z,2.60
2023-03-07T17:16:14.057Z,2.47
2023-03-07T17:18:40.663Z,2.10
2023-03-07T17:21:07.036Z,6.50
2023-03-07T17:23:33.435Z,4.32
2023-03-07T17:25:59.834Z,6.90
2023-03-07T17:28:26.672Z,7.00
2023-03-07T17:30:53.070Z,4.90
2023-03-07T17:33:19.598Z,5.05
2023-03-07T17:35:46.117Z,5.00
2023-03-07T17:38:12.555Z,8.25
2023-03-07T17:40:39.022Z,5.32
2023-03-07T17:43:05.453Z,3.10
2023-03-07T17:45:31.874Z,4.20
2023-03-07T17:47:58.260Z,4.03
2023-03-07T17:50:25.590Z,4.40
2023-03-07T17:52:53.711Z,3.85
2023-03-07T17:55:21.615Z,3.88
2023-03-07T17:57:48.035Z,3.22
2023-03-07T18:00:14.684Z,8.32
2023-03-07T18:02:44.089Z,4.25
2023-03-07T18:05:12.768Z,4.95
2023-03-07T18:07:40.367Z,3.88
2023-03-07T18:10:08.881Z,7.72
2023-03-07T18:12:35.707Z,8.07
2023-03-07T18:15:02.127Z,5.28
2023-03-07T18:17:38.486Z,5.32
2023-03-07T18:20:14.412Z,6.97
2023-03-07T18:22:40.960Z,8.50
2023-03-07T18:25:09.984Z,5.70
2023-03-07T18:27:36.375Z,7.45
2023-03-07T18:30:03.889Z,7.82
2023-03-07T18:32:31.148Z,4.68
2023-03-07T18:34:57.662Z,5.05
2023-03-07T18:37:24.070Z,4.97
2023-03-07T18:39:50.451Z,7.95
2023-03-07T18:42:16.846Z,10.20
2023-03-07T18:44:43.285Z,10.20
2023-03-07T18:47:10.485Z,13.48
2023-03-07T18:49:38.341Z,16.73
2023-03-07T18:52:04.929Z,16.73
2023-03-07T18:54:31.411Z,21.05
2023-03-07T18:56:57.780Z,17.85
2023-03-07T18:59:24.273Z,20.45
2023-03-07T19:01:50.755Z,21.23
2023-03-07T19:04:17.662Z,23.10
2023-03-07T19:06:48.446Z,23.98
2023-03-07T19:09:17.109Z,23.48
2023-03-07T19:11:43.632Z,37.60
2023-03-07T19:14:10.446Z,72.47
2023-03-07T19:16:36.901Z,54.92
2023-03-07T19:19:03.690Z,43.10
2023-03-07T19:21:30.767Z,46.25
2023-03-07T19:23:58.623Z,38.45
2023-03-07T19:26:25.884Z,35.30
2023-03-07T19:28:54.013Z,37.35
2023-03-07T19:31:27.497Z,42.00
2023-03-07T19:33:54.053Z,35.50
2023-03-07T19:36:22.708Z,32.17
2023-03-07T19:38:50.589Z,31.23
2023-03-07T19:41:19.577Z,32.38
2023-03-07T19:43:45.972Z,29.27
2023-03-07T19:46:13.694Z,30.85
2023-03-07T19:48:40.917Z,29.77
2023-03-07T19:51:15.317Z,33.63
2023-03-07T19:53:42.583Z,30.95
2023-03-07T19:56:13.704Z,32.38
2023-03-07T19:58:40.206Z,36.22
2023-03-07T20:01:11.323Z,35.10
2023-03-07T20:03:38.311Z,37.08
2023-03-07T20:06:05.671Z,33.03
2023-03-07T20:08:33.505Z,31.13
2023-03-07T20:11:14.336Z,32.63
2023-03-07T20:13:42.011Z,24.98
2023-03-07T20:16:10.458Z,27.23
2023-03-07T20:18:37.682Z,26.63
2023-03-07T20:21:11.336Z,23.50
2023-03-07T20:23:38.007Z,25.52
2023-03-07T20:26:06.947Z,26.73
2023-03-07T20:28:33.918Z,28.08
2023-03-07T20:31:01.460Z,28.67
2023-03-07T20:33:28.419Z,33.70
2023-03-07T20:36:04.712Z,39.30
2023-03-07T20:38:32.707Z,38.70
2023-03-07T20:41:01.308Z,33.60
2023-03-07T20:43:27.825Z,42.63
2023-03-07T20:45:54.304Z,44.92
2023-03-07T20:48:20.799Z,41.10
2023-03-07T20:50:47.222Z,43.15
2023-03-07T20:53:13.589Z,47.22
2023-03-07T20:55:39.988Z,42.15
2023-03-07T20:58:08.007Z,48.85
2023-03-07T21:00:34.402Z,47.65
2023-03-07T21:03:05.991Z,47.65
2023-03-07T21:05:33.132Z,49.08
2023-03-07T21:07:59.585Z,49.85
2023-03-07T21:10:25.972Z,54.55
2023-03-07T21:12:53.155Z,53.65
2023-03-07T21:15:19.560Z,51.13
2023-03-07T21:17:45.984Z,54.65
2023-03-07T21:20:12.560Z,55.58
2023-03-07T21:22:40.494Z,60.25
2023-03-07T21:25:07.400Z,58.17
2023-03-07T21:27:33.781Z,56.95
2023-03-07T21:30:00.192Z,59.35
2023-03-07T21:32:27.832Z,63.15
2023-03-07T21:34:54.240Z,63.08
2023-03-07T21:37:20.671Z,58.80
2023-03-07T21:39:47.054Z,62.13
2023-03-07T21:42:13.559Z,64.07
2023-03-07T21:44:39.939Z,67.65
2023-03-07T21:47:06.327Z,63.03
2023-03-07T21:49:33.883Z,58.78
2023-03-07T21:52:00.331Z,68.03
2023-03-07T21:54:26.802Z,60.85
2023-03-07T21:56:53.181Z,60.88
2023-03-07T21:59:19.614Z,64.40
2023-03-07T22:01:46.087Z,63.67
2023-03-07T22:04:12.535Z,58.47
2023-03-07T22:06:38.962Z,55.42
2023-03-07T22:09:05.607Z,58.70
2023-03-07T22:11:32.043Z,60.35
2023-03-07T22:13:58.436Z,57.20
2023-03-07T22:16:24.943Z,56.90
2023-03-07T22:18:52.933Z,58.63
2023-03-07T22:21:21.027Z,52.67
2023-03-07T22:23:47.426Z,54.03
2023-03-07T22:26:13.820Z,52.72
2023-03-07T22:28:40.944Z,56.10
2023-03-07T22:31:09.903Z,51.80
2023-03-07T22:33:36.287Z,49.95
2023-03-07T22:36:05.155Z,52.45
2023-03-07T22:38:32.231Z,52.38
2023-03-07T22:41:24.301Z,50.97
2023-03-07T22:43:52.321Z,41.17
2023-03-07T22:46:18.755Z,53.25
2023-03-07T22:48:45.130Z,46.08
2023-03-07T22:51:13.977Z,53.05
2023-03-07T22:53:40.622Z,56.72
2023-03-07T22:56:15.583Z,55.13
2023-03-07T22:58:42.083Z,54.92
2023-03-07T23:01:16.697Z,57.30
2023-03-07T23:03:43.392Z,53.58
2023-03-07T23:06:09.820Z,58.25
2023-03-07T23:08:36.184Z,59.45
2023-03-07T23:11:08.859Z,53.45
2023-03-07T23:13:35.313Z,48.75
2023-03-07T23:16:08.444Z,52.25
2023-03-07T23:18:36.508Z,52.28
2023-03-07T23:21:06.770Z,49.72
2023-03-07T23:23:33.266Z,56.13
2023-03-07T23:25:59.682Z,53.33
2023-03-07T23:28:26.106Z,51.10
2023-03-07T23:30:52.752Z,62.13
2023-03-07T23:33:19.491Z,51.35
2023-03-07T23:35:46.013Z,52.85
2023-03-07T23:38:12.866Z,51.53
2023-03-07T23:40:39.652Z,54.67
2023-03-07T23:43:06.612Z,54.10
2023-03-07T23:45:33.252Z,51.72
2023-03-07T23:47:59.649Z,59.15
2023-03-07T23:50:26.010Z,54.83
2023-03-07T23:52:52.438Z,55.63
2023-03-07T23:55:18.946Z,53.28
2023-03-07T23:57:46.429Z,58.08
